Time,TemperatureF,DewpointF,PressureIn,WindDirection,WindDirectionDegrees,WindSpeedMPH,WindSpeedGustMPH,Humidity,HourlyPrecipIn,Conditions,Clouds,dailyrainin,SolarRadiationWatts/m^2,SoftwareType,DateUTC
2013-06-16 00:01:00,74.0,73.0,30.01,East,86,0.0,0.0,98,0.00,,,-99.99,0.000000,,2013-06-16 05:01:00,
2013-06-16 00:11:00,74.0,73.0,30.00,East,86,0.0,0.0,98,0.00,,,-99.99,0.000000,,2013-06-16 05:11:00,
2013-06-16 00:22:00,74.0,73.0,30.00,East,86,0.0,0.0,98,0.00,,,-99.99,0.000000,,2013-06-16 05:22:00,
2013-06-16 00:34:00,74.0,73.0,29.99,East,86,0.0,0.0,98,0.00,,,-99.99,0.000000,,2013-06-16 05:34:00,
2013-06-16 00:43:00,74.0,73.0,29.99,East,86,0.0,0.0,98,0.00,,,-99.99,0.000000,,2013-06-16 05:43:00,
2013-06-16 00:52:00,74.0,73.0,29.98,East,86,0.0,1.0,98,0.00,,,-99.99,0.000000,,2013-06-16 05:52:00,
2013-06-16 01:01:00,74.0,73.0,29.99,East,86,0.0,0.0,98,0.00,,,-99.99,0.000000,,2013-06-16 06:01:00,
2013-06-16 01:11:00,74.0,73.0,29.98,East,86,0.0,0.0,98,0.00,,,-99.99,0.000000,,2013-06-16 06:11:00,
2013-06-16 01:22:00,74.0,73.0,29.98,East,86,0.0,0.0,98,0.00,,,-99.99,0.000000,,2013-06-16 06:22:00,
2013-06-16 01:33:00,74.0,73.0,29.98,East,86,0.0,0.0,98,0.00,,,-99.99,0.000000,,2013-06-16 06:33:00,
2013-06-16 01:43:00,74.0,73.0,29.98,East,86,0.0,0.0,98,0.00,,,-99.99,0.000000,,2013-06-16 06:43:00,
2013-06-16 01:52:00,74.0,73.0,29.97,East,86,0.0,0.0,98,0.00,,,-99.99,0.000000,,2013-06-16 06:52:00,
2013-06-16 02:01:00,74.0,73.0,29.97,East,86,0.0,0.0,98,0.00,,,-99.99,0.000000,,2013-06-16 07:01:00,
2013-06-16 02:11:00,74.0,73.0,29.97,SE,125,0.0,1.0,98,0.00,,,-99.99,0.000000,,2013-06-16 07:11:00,
2013-06-16 02:22:00,74.0,73.0,29.97,SE,125,0.0,0.0,98,0.00,,,-99.99,0.000000,,2013-06-16 07:22:00,
2013-06-16 02:33:00,74.0,73.0,29.97,SE,125,0.0,0.0,98,0.00,,,-99.99,0.000000,,2013-06-16 07:33:00,
2013-06-16 02:43:00,73.0,72.0,29.97,SE,125,0.0,0.0,98,0.00,,,-99.99,0.000000,,2013-06-16 07:43:00,
2013-06-16 02:53:00,73.0,72.0,29.97,SE,125,0.0,0.0,98,0.00,,,-99.99,0.000000,,2013-06-16 07:53:00,
2013-06-16 03:02:00,73.0,73.0,29.97,SE,125,0.0,0.0,99,0.00,,,-99.99,0.000000,,2013-06-16 08:02:00,
2013-06-16 03:11:00,73.0,73.0,29.97,SE,125,0.0,0.0,99,0.00,,,-99.99,0.000000,,2013-06-16 08:11:00,
2013-06-16 03:22:00,73.0,73.0,29.97,SE,125,0.0,0.0,99,0.00,,,-99.99,0.000000,,2013-06-16 08:22:00,
2013-06-16 03:33:00,73.0,73.0,29.97,SE,125,0.0,0.0,99,0.00,,,-99.99,0.000000,,2013-06-16 08:33:00,
2013-06-16 03:43:00,73.0,73.0,29.97,SE,125,0.0,0.0,99,0.00,,,-99.99,0.000000,,2013-06-16 08:43:00,
2013-06-16 03:54:00,73.0,73.0,29.97,SE,125,0.0,0.0,99,0.00,,,-99.99,0.000000,,2013-06-16 08:54:00,
2013-06-16 04:02:00,73.0,73.0,29.97,SE,125,0.0,0.0,99,0.00,,,-99.99,0.000000,,2013-06-16 09:02:00,
2013-06-16 04:11:00,73.0,73.0,29.97,SE,125,0.0,0.0,99,0.00,,,-99.99,0.000000,,2013-06-16 09:11:00,
2013-06-16 04:22:00,73.0,73.0,29.97,SE,125,0.0,0.0,99,0.00,,,-99.99,0.000000,,2013-06-16 09:22:00,
2013-06-16 04:33:00,73.0,73.0,29.97,SE,125,0.0,0.0,99,0.00,,,-99.99,0.000000,,2013-06-16 09:33:00,
2013-06-16 04:43:00,73.0,73.0,29.97,SE,125,0.0,0.0,99,0.00,,,-99.99,0.000000,,2013-06-16 09:43:00,
2013-06-16 04:52:00,73.0,73.0,29.98,SE,125,0.0,0.0,99,0.00,,,-99.99,0.000000,,2013-06-16 09:52:00,
2013-06-16 05:01:00,73.0,73.0,29.98,SE,125,0.0,0.0,99,0.00,,,-99.99,0.000000,,2013-06-16 10:01:00,
2013-06-16 05:12:00,73.0,73.0,29.98,SE,125,0.0,0.0,99,0.00,,,-99.99,0.000000,,2013-06-16 10:12:00,
2013-06-16 05:22:00,72.0,72.0,29.98,SE,125,0.0,0.0,99,0.00,,,-99.99,0.000000,,2013-06-16 10:22:00,
2013-06-16 05:33:00,72.0,72.0,29.98,SE,125,0.0,0.0,99,0.00,,,-99.99,0.000000,,2013-06-16 10:33:00,
2013-06-16 05:43:00,72.0,72.0,29.99,SE,125,0.0,0.0,99,0.00,,,-99.99,0.000000,,2013-06-16 10:43:00,
2013-06-16 05:53:00,72.0,72.0,30.00,SE,125,0.0,0.0,99,0.00,,,-99.99,0.000000,,2013-06-16 10:53:00,
2013-06-16 06:02:00,72.0,72.0,30.00,SE,125,0.0,1.0,99,0.00,,,-99.99,0.000000,,2013-06-16 11:02:00,
2013-06-16 06:11:00,72.0,72.0,30.00,SE,125,0.0,0.0,99,0.00,,,-99.99,0.000000,,2013-06-16 11:11:00,
2013-06-16 06:22:00,72.0,72.0,30.01,SE,126,0.0,1.0,99,0.00,,,-99.99,0.000000,,2013-06-16 11:22:00,
2013-06-16 06:34:00,72.0,72.0,30.01,SE,126,0.0,0.0,99,0.00,,,-99.99,0.000000,,2013-06-16 11:34:00,
2013-06-16 06:43:00,72.0,72.0,30.01,SE,126,0.0,0.0,99,0.00,,,-99.99,0.000000,,2013-06-16 11:43:00,
2013-06-16 06:52:00,72.0,72.0,30.01,SE,126,0.0,0.0,99,0.00,,,-99.99,9.000000,,2013-06-16 11:52:00,
2013-06-16 07:02:00,72.0,72.0,30.02,SE,126,0.0,0.0,99,0.00,,,-99.99,12.000000,,2013-06-16 12:02:00,
2013-06-16 07:12:00,72.0,72.0,30.03,SE,126,0.0,0.0,99,0.00,,,-99.99,16.000000,,2013-06-16 12:12:00,
2013-06-16 07:22:00,72.0,72.0,30.03,SE,126,0.0,0.0,99,0.00,,,-99.99,21.000000,,2013-06-16 12:22:00,
2013-06-16 07:32:00,72.0,72.0,30.03,SE,126,0.0,1.0,99,0.00,,,-99.99,23.000000,,2013-06-16 12:32:00,
2013-06-16 07:42:00,72.0,72.0,30.04,SE,126,0.0,0.0,99,0.00,,,-99.99,30.000000,,2013-06-16 12:42:00,
2013-06-16 07:53:00,73.0,73.0,30.04,SE,126,0.0,0.0,99,0.00,,,-99.99,35.000000,,2013-06-16 12:53:00,
2013-06-16 08:01:00,73.0,73.0,30.04,SE,126,0.0,0.0,99,0.00,,,-99.99,39.000000,,2013-06-16 13:01:00,
2013-06-16 08:11:00,73.0,73.0,30.05,SE,126,0.0,0.0,99,0.00,,,-99.99,42.000000,,2013-06-16 13:11:00,
2013-06-16 08:22:00,74.0,74.0,30.05,SE,126,0.0,0.0,99,0.00,,,-99.99,47.000000,,2013-06-16 13:22:00,
2013-06-16 08:34:00,74.0,74.0,30.05,SE,126,0.0,0.0,99,0.00,,,-99.99,56.000000,,2013-06-16 13:34:00,
2013-06-16 08:42:00,75.0,75.0,30.05,SE,126,0.0,0.0,100,0.00,,,-99.99,98.000000,,2013-06-16 13:42:00,
2013-06-16 08:53:00,76.0,76.0,30.05,SE,126,0.0,0.0,99,0.00,,,-99.99,54.000000,,2013-06-16 13:53:00,
2013-06-16 09:02:00,77.0,77.0,30.05,SE,126,0.0,0.0,100,0.00,,,-99.99,70.000000,,2013-06-16 14:02:00,
2013-06-16 09:12:00,78.0,78.0,30.06,East,83,0.0,1.0,99,0.00,,,-99.99,320.000000,,2013-06-16 14:12:00,
2013-06-16 09:22:00,78.0,78.0,30.06,ENE,66,0.0,1.0,99,0.00,,,-99.99,403.000000,,2013-06-16 14:22:00,
2013-06-16 09:34:00,79.0,79.0,30.06,ENE,65,0.0,1.0,100,0.00,,,-99.99,445.000000,,2013-06-16 14:34:00,
2013-06-16 09:43:00,80.0,80.0,30.05,ESE,102,0.0,1.0,99,0.00,,,-99.99,555.000000,,2013-06-16 14:43:00,
2013-06-16 09:52:00,81.0,81.0,30.06,West,272,0.0,1.0,99,0.00,,,-99.99,547.000000,,2013-06-16 14:52:00,
2013-06-16 10:02:00,81.0,81.0,30.06,ENE,59,0.0,1.0,99,0.00,,,-99.99,617.000000,,2013-06-16 15:02:00,
2013-06-16 10:12:00,81.0,80.0,30.05,ESE,102,0.0,1.0,98,0.00,,,-99.99,626.000000,,2013-06-16 15:12:00,
2013-06-16 10:33:00,83.0,81.0,30.05,SW,225,0.0,1.0,93,0.00,,,-99.99,719.000000,,2013-06-16 15:33:00,
2013-06-16 10:43:00,85.0,80.0,30.05,WSW,254,0.0,1.0,86,0.00,,,-99.99,749.000000,,2013-06-16 15:43:00,
2013-06-16 10:52:00,86.0,81.0,30.05,South,180,0.0,1.0,85,0.00,,,-99.99,742.000000,,2013-06-16 15:52:00,
2013-06-16 11:12:00,88.0,79.0,30.05,SE,140,0.0,1.0,76,0.00,,,-99.99,874.000000,,2013-06-16 16:12:00,
2013-06-16 11:53:00,90.0,78.0,30.05,ESE,112,0.0,2.0,67,0.00,,,-99.99,990.000000,,2013-06-16 16:53:00,
2013-06-16 12:22:00,91.0,78.0,30.04,SSW,195,0.0,1.0,67,0.00,,,-99.99,935.000000,,2013-06-16 17:22:00,
2013-06-16 12:34:00,91.0,79.0,30.04,SE,133,0.0,2.0,68,0.00,,,-99.99,1063.000000,,2013-06-16 17:34:00,
2013-06-16 12:43:00,91.0,79.0,30.04,WSW,240,0.0,2.0,68,0.00,,,-99.99,1120.000000,,2013-06-16 17:43:00,
2013-06-16 12:53:00,91.0,79.0,30.04,WNW,286,1.0,5.0,69,0.00,,,-99.99,1004.000000,,2013-06-16 17:53:00,
2013-06-16 13:12:00,91.0,80.0,30.04,SSE,155,0.0,6.0,70,0.00,,,-99.99,1137.000000,,2013-06-16 18:12:00,
2013-06-16 13:22:00,92.0,79.0,30.03,ENE,67,1.0,2.0,67,0.00,,,-99.99,1123.000000,,2013-06-16 18:22:00,
2013-06-16 13:33:00,92.0,80.0,30.03,NE,52,0.0,4.0,68,0.00,,,-99.99,1081.000000,,2013-06-16 18:33:00,
2013-06-16 13:43:00,91.0,78.0,30.03,SW,232,0.0,5.0,67,0.00,,,-99.99,469.000000,,2013-06-16 18:43:00,
2013-06-16 13:52:00,91.0,79.0,30.03,East,80,1.0,5.0,68,0.00,,,-99.99,1056.000000,,2013-06-16 18:52:00,
2013-06-16 14:01:00,92.0,79.0,30.02,ESE,119,0.0,4.0,67,0.00,,,-99.99,1034.000000,,2013-06-16 19:01:00,
2013-06-16 14:22:00,92.0,78.0,30.01,ENE,77,0.0,5.0,64,0.00,,,-99.99,979.000000,,2013-06-16 19:22:00,
2013-06-16 14:34:00,92.0,79.0,30.01,North,355,1.0,3.0,65,0.00,,,-99.99,972.000000,,2013-06-16 19:34:00,
2013-06-16 14:43:00,92.0,79.0,30.01,North,355,1.0,3.0,65,0.00,,,-99.99,972.000000,,2013-06-16 19:43:00,
2013-06-16 14:53:00,91.0,79.0,30.01,ESE,123,0.0,1.0,68,0.00,,,-99.99,1014.000000,,2013-06-16 19:53:00,
2013-06-16 15:02:00,91.0,79.0,30.00,SE,135,0.0,4.0,69,0.00,,,-99.99,1049.000000,,2013-06-16 20:02:00,
2013-06-16 15:11:00,92.0,79.0,30.00,ESE,106,0.0,4.0,65,0.00,,,-99.99,969.000000,,2013-06-16 20:11:00,
2013-06-16 16:01:00,94.0,79.0,29.99,SE,128,0.0,1.0,63,0.00,,,-99.99,875.000000,,2013-06-16 21:01:00,
2013-06-16 16:22:00,94.0,79.0,29.99,SE,132,0.0,1.0,63,0.00,,,-99.99,63.000000,,2013-06-16 21:22:00,
2013-06-16 16:32:00,92.0,81.0,29.99,ESE,122,0.0,1.0,70,0.00,,,-99.99,227.000000,,2013-06-16 21:32:00,
2013-06-16 16:42:00,91.0,77.0,29.98,WNW,303,0.0,4.0,64,0.00,,,-99.99,109.000000,,2013-06-16 21:42:00,
2013-06-16 17:01:00,89.0,78.0,29.98,WNW,290,0.0,2.0,70,0.00,,,0.75,102.000000,,2013-06-16 22:01:00,
2013-06-16 17:12:00,89.0,80.0,29.98,ENE,59,0.0,1.0,75,0.00,,,0.75,88.000000,,2013-06-16 22:12:00,
2013-06-16 17:32:00,88.0,79.0,29.97,ESE,118,0.0,1.0,75,0.00,,,0.75,130.000000,,2013-06-16 22:32:00,
2013-06-16 17:42:00,88.0,79.0,29.98,ESE,113,0.0,2.0,76,0.00,,,0.75,529.000000,,2013-06-16 22:42:00,
2013-06-16 17:52:00,88.0,80.0,29.97,SE,132,0.0,2.0,78,0.00,,,0.75,76.000000,,2013-06-16 22:52:00,
2013-06-16 18:01:00,87.0,78.0,29.97,SE,130,0.0,7.0,75,0.00,,,0.00,90.000000,,2013-06-16 23:01:00,
2013-06-16 18:11:00,87.0,79.0,29.96,East,100,0.0,2.0,78,0.00,,,0.00,176.000000,,2013-06-16 23:11:00,
2013-06-16 18:22:00,87.0,80.0,29.96,East,90,0.0,1.0,80,0.00,,,0.00,42.000000,,2013-06-16 23:22:00,
2013-06-16 18:32:00,86.0,78.0,29.96,SE,142,0.0,2.0,78,0.00,,,0.00,26.000000,,2013-06-16 23:32:00,
2013-06-16 18:42:00,86.0,79.0,29.96,SE,142,0.0,1.0,81,0.00,,,0.00,162.000000,,2013-06-16 23:42:00,
2013-06-16 18:52:00,85.0,79.0,29.96,SE,130,0.0,1.0,83,0.00,,,0.00,42.000000,,2013-06-16 23:52:00,
2013-06-16 19:02:00,85.0,78.0,29.96,ESE,121,0.0,4.0,80,0.00,,,0.00,32.000000,,2013-06-17 00:02:00,
2013-06-16 19:11:00,84.0,77.0,29.96,SE,146,1.0,2.0,80,0.00,,,0.00,28.000000,,2013-06-17 00:11:00,
2013-06-16 19:22:00,84.0,78.0,29.96,East,98,0.0,4.0,82,0.00,,,0.00,25.000000,,2013-06-17 00:22:00,
2013-06-16 19:32:00,83.0,77.0,29.96,SE,138,0.0,1.0,82,0.00,,,0.00,23.000000,,2013-06-17 00:32:00,
2013-06-16 19:43:00,83.0,78.0,29.96,ENE,70,0.0,1.0,84,0.00,,,0.00,23.000000,,2013-06-17 00:43:00,
2013-06-16 19:52:00,83.0,78.0,29.96,SE,146,0.0,1.0,85,0.00,,,0.00,18.000000,,2013-06-17 00:52:00,
2013-06-16 20:02:00,83.0,78.0,29.96,ESE,104,0.0,1.0,86,0.00,,,0.00,16.000000,,2013-06-17 01:02:00,
2013-06-16 20:12:00,82.0,77.0,29.96,ESE,114,0.0,2.0,86,0.00,,,0.00,11.000000,,2013-06-17 01:12:00,
2013-06-16 20:22:00,82.0,77.0,29.96,ESE,123,0.0,1.0,86,0.00,,,0.00,7.000000,,2013-06-17 01:22:00,
2013-06-16 20:32:00,81.0,76.0,29.96,West,275,0.0,4.0,86,0.00,,,0.00,0.000000,,2013-06-17 01:32:00,
2013-06-16 20:43:00,81.0,77.0,29.96,ENE,64,0.0,1.0,88,0.00,,,0.00,0.000000,,2013-06-17 01:43:00,
2013-06-16 20:53:00,81.0,77.0,29.96,ENE,63,0.0,0.0,88,0.00,,,0.00,0.000000,,2013-06-17 01:53:00,
2013-06-16 21:02:00,80.0,76.0,29.96,SE,143,0.0,1.0,88,0.00,,,0.00,0.000000,,2013-06-17 02:02:00,
2013-06-16 21:12:00,80.0,76.0,29.96,SE,144,0.0,1.0,88,0.00,,,0.00,0.000000,,2013-06-17 02:12:00,
2013-06-16 21:22:00,79.0,75.0,29.96,SE,144,0.0,0.0,88,0.00,,,0.00,0.000000,,2013-06-17 02:22:00,
2013-06-16 21:34:00,79.0,75.0,29.96,SE,144,0.0,0.0,89,0.00,,,0.00,0.000000,,2013-06-17 02:34:00,
2013-06-16 21:43:00,79.0,75.0,29.97,SE,144,0.0,0.0,89,0.00,,,0.00,0.000000,,2013-06-17 02:43:00,
2013-06-16 21:53:00,79.0,76.0,29.97,SE,144,0.0,1.0,90,0.00,,,0.00,0.000000,,2013-06-17 02:53:00,
2013-06-16 22:02:00,78.0,75.0,29.97,SE,144,0.0,0.0,91,0.00,,,0.00,0.000000,,2013-06-17 03:02:00,
2013-06-16 22:12:00,78.0,75.0,29.98,ESE,113,0.0,0.0,91,0.00,,,0.00,0.000000,,2013-06-17 03:12:00,
2013-06-16 22:22:00,78.0,75.0,29.98,ESE,113,0.0,0.0,92,0.00,,,0.00,0.000000,,2013-06-17 03:22:00,
2013-06-16 22:33:00,78.0,75.0,29.98,ESE,113,0.0,0.0,92,0.00,,,0.00,0.000000,,2013-06-17 03:33:00,
2013-06-16 22:44:00,78.0,76.0,29.99,ESE,113,0.0,1.0,93,0.00,,,0.00,0.000000,,2013-06-17 03:44:00,
2013-06-16 22:53:00,77.0,75.0,29.99,ESE,121,0.0,1.0,93,0.00,,,0.00,0.000000,,2013-06-17 03:53:00,
2013-06-16 23:02:00,77.0,75.0,30.00,ESE,121,0.0,0.0,94,0.00,,,0.00,0.000000,,2013-06-17 04:02:00,
2013-06-16 23:12:00,77.0,75.0,30.00,ESE,121,0.0,0.0,94,0.00,,,0.00,0.000000,,2013-06-17 04:12:00,
2013-06-16 23:22:00,77.0,75.0,30.00,ESE,121,0.0,0.0,94,0.00,,,0.00,0.000000,,2013-06-17 04:22:00,
2013-06-16 23:34:00,77.0,75.0,30.01,ESE,121,0.0,0.0,95,0.00,,,0.00,0.000000,,2013-06-17 04:34:00,
2013-06-16 23:43:00,77.0,75.0,30.01,ESE,121,0.0,0.0,95,0.00,,,0.00,0.000000,,2013-06-17 04:43:00,
2013-06-16 23:53:00,77.0,75.0,30.01,ESE,121,0.0,0.0,95,0.00,,,0.00,0.000000,,2013-06-17 04:53:00,